This is the latest recevied weather packets stored in our database for station/object K5NWZ. If no packets are shown the sender has not sent any weather packets the latest 10 day(s).
| Time | Temp. | Humidity | Pressure | Rain* | Wind** | Luminosity | Snow |
|---|---|---|---|---|---|---|---|
| 1787944140 | 32.78° C | 27% | 1028 hPa | 0 mm | - | 293 W/m² | - |
| 1787943835 | 32.22° C | 29% | 1028 hPa | 0 mm | - | 342 W/m² | - |
| 1787943531 | 32.78° C | 31% | 1027.7 hPa | 0 mm | - | 227 W/m² | - |
| 1787943226 | 32.78° C | 33% | 1027.9 hPa | 0 mm | - | 261 W/m² | - |
| 1787942925 | 32.22° C | 33% | 1027.9 hPa | 0 mm | - | 596 W/m² | - |
| 1787942621 | 31.67° C | 37% | 1028 hPa | 0 mm | - | 278 W/m² | - |
| 1787942320 | 31.67° C | 37% | 1028 hPa | 0 mm | - | 265 W/m² | - |
| 1787942016 | 31.11° C | 37% | 1028.1 hPa | 0 mm | - | 267 W/m² | - |
| 1787941711 | 31.67° C | 37% | 1028.1 hPa | 0 mm | - | 503 W/m² | - |
| 1787941409 | 31.67° C | 38% | 1028.2 hPa | 0 mm | - | 465 W/m² | - |
| 1787941108 | 31.67° C | 36% | 1028.3 hPa | 0 mm | - | 776 W/m² | - |
| 1787940799 | 31.67° C | 38% | 1028.4 hPa | 0 mm | - | 773 W/m² | - |
| 1787940496 | 30.56° C | 39% | 1028.4 hPa | 0 mm | - | 751 W/m² | - |
| 1787940190 | 30.56° C | 39% | 1028.8 hPa | 0 mm | - | 727 W/m² | - |
| 1787939889 | 30° C | 41% | 1028.7 hPa | 0 mm | - | 703 W/m² | - |
| 1787939585 | 29.44° C | 41% | 1028.9 hPa | 0 mm | - | 687 W/m² | - |
| 1787939285 | 29.44° C | 43% | 1028.9 hPa | 0 mm | - | 706 W/m² | - |
| 1787938980 | 29.44° C | 42% | 1029 hPa | 0 mm | - | 687 W/m² | - |
| 1787938678 | 29.44° C | 42% | 1029.1 hPa | 0 mm | - | 672 W/m² | - |
| 1787938375 | 28.89° C | 41% | 1029 hPa | 0 mm | - | 651 W/m² | - |
| 1787938075 | 29.44° C | 39% | 1029.4 hPa | 0 mm | - | 670 W/m² | - |
| 1787937770 | 30° C | 39% | 1029.3 hPa | 0 mm | - | 660 W/m² | - |
| 1787937466 | 29.44° C | 40% | 1029.5 hPa | 0 mm | - | 648 W/m² | - |
| 1787937163 | 28.33° C | 42% | 1029.4 hPa | 0 mm | - | 632 W/m² | - |
| 1787936862 | 27.78° C | 43% | 1029.6 hPa | 0 mm | - | 628 W/m² | - |
* Rain latest hour (hover to see other rain measurements)
** Current wind speed in m/s (hover to see current wind gust speed)